Time;durP1;ratioP1;P1;durP2;ratioP2;P2;SDS_P1;SDS_P2;PMS_P1;PMS_P2;Temp;Humidity;BMP_temperature;BMP_pressure;BME280_temperature;BME280_humidity;BME280_pressure;Samples;Min_cycle;Max_cycle;Signal;HPM_P1;HPM_P2
2021/03/22 00:00:42;;;;;;;6.23;3.37;;;;;;;;;;5105946;28;20176;-42
2021/03/22 00:03:08;;;;;;;4.23;3.27;;;;;;;;;;5104944;28;20666;-42
2021/03/22 00:05:33;;;;;;;7.40;3.17;;;;;;;;;;5105295;28;21075;-43
2021/03/22 00:07:58;;;;;;;6.87;3.50;;;;;;;;;;5107850;28;20268;-42
2021/03/22 00:10:25;;;;;;;6.50;3.17;;;;;;;;;;5105285;28;20574;-42
2021/03/22 00:12:50;;;;;;;5.90;3.80;;;;;;;;;;5107711;28;20530;-43
2021/03/22 00:15:16;;;;;;;7.30;3.80;;;;;;;;;;5108456;28;20576;-42
2021/03/22 00:17:42;;;;;;;9.07;3.17;;;;;;;;;;5108350;28;20248;-43
2021/03/22 00:20:08;;;;;;;8.00;4.00;;;;;;;;;;5108113;28;21220;-42
2021/03/22 00:22:33;;;;;;;6.27;3.10;;;;;;;;;;5107229;28;20170;-42
2021/03/22 00:24:58;;;;;;;5.45;3.08;;;;;;;;;;5106246;28;20661;-43
2021/03/22 00:27:23;;;;;;;5.07;3.22;;;;;;;;;;5100910;28;20200;-42
2021/03/22 00:29:48;;;;;;;8.07;3.80;;;;;;;;;;5106438;28;20287;-43
2021/03/22 00:32:13;;;;;;;4.78;2.67;;;;;;;;;;5106692;28;20664;-42
2021/03/22 00:34:38;;;;;;;7.70;3.33;;;;;;;;;;5099334;28;20245;-43
2021/03/22 00:37:04;;;;;;;6.73;3.47;;;;;;;;;;5106093;28;20653;-43
2021/03/22 00:39:29;;;;;;;6.57;3.60;;;;;;;;;;5100311;28;20183;-43
2021/03/22 00:41:54;;;;;;;5.30;3.30;;;;;;;;;;5104147;28;20270;-43
2021/03/22 00:44:19;;;;;;;5.50;3.33;;;;;;;;;;5104142;28;20234;-43
2021/03/22 00:46:45;;;;;;;8.48;2.88;;;;;;;;;;5108395;28;20177;-48
2021/03/22 00:49:10;;;;;;;5.00;3.43;;;;;;;;;;5107014;28;20207;-43
2021/03/22 00:51:35;;;;;;;4.20;3.13;;;;;;;;;;5101782;28;20177;-43
2021/03/22 00:54:00;;;;;;;8.43;3.03;;;;;;;;;;5105118;28;20169;-43
2021/03/22 00:56:25;;;;;;;5.57;3.23;;;;;;;;;;5105959;28;20302;-41
2021/03/22 00:58:50;;;;;;;10.03;4.50;;;;;;;;;;5100057;28;20227;-41
2021/03/22 01:01:16;;;;;;;4.63;2.80;;;;;;;;;;5102937;28;20234;-43
2021/03/22 01:03:41;;;;;;;3.40;3.10;;;;;;;;;;5107163;28;20166;-42
2021/03/22 01:06:07;;;;;;;5.77;3.00;;;;;;;;;;5107732;28;20187;-42
2021/03/22 01:08:33;;;;;;;4.20;3.60;;;;;;;;;;5105720;28;20275;-42
2021/03/22 01:11:00;;;;;;;5.50;3.43;;;;;;;;;;5105710;28;21069;-42
2021/03/22 01:13:33;;;;;;;5.40;3.37;;;;;;;;;;5107682;28;20625;-42
2021/03/22 01:15:59;;;;;;;4.27;2.97;;;;;;;;;;5100990;28;20591;-42
2021/03/22 01:18:25;;;;;;;6.07;3.67;;;;;;;;;;5111708;28;20975;-43
2021/03/22 01:20:55;;;;;;;6.20;2.70;;;;;;;;;;5108557;28;20241;-43
2021/03/22 01:23:21;;;;;;;6.23;3.40;;;;;;;;;;5102475;28;20612;-42
2021/03/22 01:25:46;;;;;;;3.50;3.00;;;;;;;;;;5111437;28;21012;-43
2021/03/22 01:28:12;;;;;;;5.13;3.13;;;;;;;;;;5111724;28;20622;-42
2021/03/22 01:30:53;;;;;;;5.60;2.90;;;;;;;;;;5111408;28;20201;-42
2021/03/22 01:33:22;;;;;;;6.10;3.53;;;;;;;;;;5106081;28;20596;-43
2021/03/22 01:35:47;;;;;;;5.23;3.40;;;;;;;;;;5108932;28;20621;-43
2021/03/22 01:38:12;;;;;;;7.30;3.07;;;;;;;;;;5108889;28;20600;-42
2021/03/22 01:40:43;;;;;;;9.47;3.27;;;;;;;;;;5106678;28;20260;-42
2021/03/22 01:43:20;;;;;;;5.80;3.67;;;;;;;;;;5107053;28;20169;-43
2021/03/22 01:45:45;;;;;;;6.67;3.40;;;;;;;;;;5109921;28;20717;-42
2021/03/22 01:48:10;;;;;;;11.33;3.93;;;;;;;;;;5111306;28;20705;-43
2021/03/22 01:50:35;;;;;;;6.93;3.67;;;;;;;;;;5109994;28;20674;-43
2021/03/22 01:53:01;;;;;;;8.40;4.00;;;;;;;;;;5109243;27;20556;-42
2021/03/22 01:55:26;;;;;;;8.80;4.30;;;;;;;;;;5109723;28;20236;-41
2021/03/22 01:57:52;;;;;;;12.37;4.40;;;;;;;;;;5110981;28;20184;-42
2021/03/22 02:00:22;;;;;;;6.33;4.13;;;;;;;;;;5108249;27;20180;-42
2021/03/22 02:02:48;;;;;;;10.33;4.80;;;;;;;;;;5103725;27;20664;-42
2021/03/22 02:05:15;;;;;;;9.20;3.60;;;;;;;;;;5109851;28;20702;-43
2021/03/22 02:07:41;;;;;;;9.77;4.13;;;;;;;;;;5109871;28;20611;-42
2021/03/22 02:10:07;;;;;;;11.23;4.17;;;;;;;;;;5101989;28;20727;-42
2021/03/22 02:12:32;;;;;;;7.87;4.33;;;;;;;;;;5106494;28;20644;-42
2021/03/22 02:14:57;;;;;;;11.10;5.47;;;;;;;;;;5107768;27;20636;-41
2021/03/22 02:17:35;;;;;;;7.73;4.23;;;;;;;;;;5108746;28;20176;-42
2021/03/22 02:20:03;;;;;;;13.27;4.27;;;;;;;;;;5109058;28;20176;-41
2021/03/22 02:22:31;;;;;;;11.53;3.90;;;;;;;;;;5103349;28;20663;-42
2021/03/22 02:25:08;;;;;;;12.80;5.17;;;;;;;;;;5106193;28;20614;-42
2021/03/22 02:27:48;;;;;;;11.40;4.77;;;;;;;;;;5096490;28;20943;-42
2021/03/22 02:30:32;;;;;;;15.83;5.33;;;;;;;;;;5108611;28;20645;-42
2021/03/22 02:33:09;;;;;;;12.27;5.70;;;;;;;;;;5105352;28;20745;-42
2021/03/22 02:35:57;;;;;;;12.00;5.03;;;;;;;;;;5107356;28;20604;-42
2021/03/22 02:38:24;;;;;;;19.40;7.53;;;;;;;;;;5105656;28;20609;-42
2021/03/22 02:40:52;;;;;;;13.80;6.07;;;;;;;;;;5108927;28;20783;-42
2021/03/22 02:43:17;;;;;;;14.00;5.80;;;;;;;;;;5109547;28;20607;-43
2021/03/22 02:45:43;;;;;;;13.80;5.50;;;;;;;;;;5106885;28;20612;-43
2021/03/22 02:48:17;;;;;;;18.37;5.67;;;;;;;;;;5110358;28;20329;-42
2021/03/22 02:50:44;;;;;;;22.30;7.00;;;;;;;;;;5108004;28;20771;-42
2021/03/22 02:53:12;;;;;;;20.80;5.97;;;;;;;;;;5103299;28;20649;-42
2021/03/22 02:55:46;;;;;;;20.73;7.40;;;;;;;;;;5108831;28;20658;-43
2021/03/22 02:58:13;;;;;;;9.80;5.90;;;;;;;;;;5108035;28;20679;-42
2021/03/22 03:00:41;;;;;;;18.73;6.10;;;;;;;;;;5108594;28;20622;-42
2021/03/22 03:03:09;;;;;;;17.77;6.90;;;;;;;;;;5102080;28;20612;-42
2021/03/22 03:05:34;;;;;;;15.17;6.60;;;;;;;;;;5108721;28;20652;-42
2021/03/22 03:08:02;;;;;;;19.97;7.10;;;;;;;;;;5106241;28;20766;-42
2021/03/22 03:10:27;;;;;;;12.07;6.33;;;;;;;;;;5106001;28;20723;-43
2021/03/22 03:12:52;;;;;;;19.80;6.87;;;;;;;;;;5106521;28;20609;-43
2021/03/22 03:15:18;;;;;;;15.33;7.50;;;;;;;;;;5109362;28;20183;-43
2021/03/22 03:17:44;;;;;;;18.20;7.73;;;;;;;;;;5106260;28;20646;-43
2021/03/22 03:20:13;;;;;;;18.17;6.40;;;;;;;;;;5108135;28;20672;-43
2021/03/22 03:22:40;;;;;;;15.73;6.43;;;;;;;;;;5104801;28;20777;-43
2021/03/22 03:25:06;;;;;;;17.00;5.90;;;;;;;;;;5104510;28;20605;-42
2021/03/22 03:27:31;;;;;;;15.07;5.77;;;;;;;;;;5103906;28;21461;-42
2021/03/22 03:29:56;;;;;;;20.58;6.90;;;;;;;;;;5108933;28;20634;-42
2021/03/22 03:32:23;;;;;;;17.53;6.90;;;;;;;;;;5108058;28;20584;-42
2021/03/22 03:34:48;;;;;;;15.47;6.50;;;;;;;;;;5101913;28;20170;-42
2021/03/22 03:37:13;;;;;;;15.23;6.27;;;;;;;;;;5106700;28;20623;-42
2021/03/22 03:39:39;;;;;;;22.77;6.50;;;;;;;;;;5109307;28;20267;-43
2021/03/22 03:42:06;;;;;;;14.50;6.23;;;;;;;;;;5105595;28;20200;-42
2021/03/22 03:44:31;;;;;;;14.27;6.17;;;;;;;;;;5107036;28;20253;-42
2021/03/22 03:46:57;;;;;;;14.47;6.10;;;;;;;;;;5108140;28;21252;-42
2021/03/22 03:49:22;;;;;;;12.33;5.87;;;;;;;;;;5107862;28;20207;-43
2021/03/22 03:51:47;;;;;;;19.57;7.07;;;;;;;;;;5107715;28;20691;-43
2021/03/22 03:54:12;;;;;;;23.93;6.70;;;;;;;;;;5106047;28;20775;-42
2021/03/22 03:56:38;;;;;;;19.17;6.33;;;;;;;;;;5106818;28;20631;-42
2021/03/22 03:59:03;;;;;;;28.40;6.13;;;;;;;;;;5105887;28;20191;-43
2021/03/22 04:01:28;;;;;;;15.60;6.07;;;;;;;;;;5107608;28;20182;-43
2021/03/22 04:03:54;;;;;;;18.88;5.60;;;;;;;;;;5107981;28;20180;-42
2021/03/22 04:06:20;;;;;;;12.57;5.63;;;;;;;;;;5106012;28;20557;-43
2021/03/22 04:08:50;;;;;;;16.10;6.30;;;;;;;;;;5107551;28;20267;-43
2021/03/22 04:11:19;;;;;;;14.57;6.50;;;;;;;;;;5107968;28;20687;-42
2021/03/22 04:13:45;;;;;;;13.40;6.93;;;;;;;;;;5103669;28;20633;-43
2021/03/22 04:16:11;;;;;;;17.13;6.93;;;;;;;;;;5107487;28;20627;-43
2021/03/22 04:18:37;;;;;;;13.70;5.80;;;;;;;;;;5107583;28;20560;-43
2021/03/22 04:21:07;;;;;;;14.67;6.70;;;;;;;;;;5106880;27;20614;-43
2021/03/22 04:23:33;;;;;;;18.73;6.20;;;;;;;;;;5108215;28;20596;-43
2021/03/22 04:25:58;;;;;;;20.90;6.90;;;;;;;;;;5106747;28;21090;-42
2021/03/22 04:28:24;;;;;;;19.77;6.83;;;;;;;;;;5106572;28;20180;-42
2021/03/22 04:30:49;;;;;;;14.18;5.82;;;;;;;;;;5104559;28;20199;-42
2021/03/22 04:33:14;;;;;;;12.03;5.47;;;;;;;;;;5106307;27;20628;-43
2021/03/22 04:35:39;;;;;;;14.17;5.20;;;;;;;;;;5105506;28;20181;-43
2021/03/22 04:38:04;;;;;;;12.57;6.53;;;;;;;;;;5094571;28;20241;-43
2021/03/22 04:40:30;;;;;;;16.63;5.80;;;;;;;;;;5105407;28;20554;-42
2021/03/22 04:42:55;;;;;;;15.87;6.50;;;;;;;;;;5095478;28;20188;-42
2021/03/22 04:45:22;;;;;;;12.47;6.30;;;;;;;;;;5100328;28;20180;-42
2021/03/22 04:47:47;;;;;;;14.87;5.87;;;;;;;;;;5104409;28;20183;-42
2021/03/22 04:50:13;;;;;;;14.00;5.50;;;;;;;;;;5102775;28;20647;-42
2021/03/22 04:52:39;;;;;;;19.83;6.10;;;;;;;;;;5103495;28;20581;-42
2021/03/22 04:55:04;;;;;;;20.50;6.17;;;;;;;;;;5102919;28;20667;-42
2021/03/22 04:57:31;;;;;;;15.23;6.30;;;;;;;;;;5101382;28;20178;-41
2021/03/22 04:59:56;;;;;;;18.53;6.83;;;;;;;;;;5104098;28;20178;-41
2021/03/22 05:02:21;;;;;;;20.10;6.10;;;;;;;;;;5105379;28;20977;-42
2021/03/22 05:04:47;;;;;;;19.63;6.70;;;;;;;;;;5103159;28;20667;-42
2021/03/22 05:07:12;;;;;;;14.00;5.00;;;;;;;;;;5098866;28;20647;-42
2021/03/22 05:09:37;;;;;;;18.77;5.90;;;;;;;;;;5100711;28;20225;-43
2021/03/22 05:12:03;;;;;;;10.90;5.10;;;;;;;;;;5105664;28;20181;-42
2021/03/22 05:14:29;;;;;;;13.80;5.60;;;;;;;;;;5107108;28;20177;-42
2021/03/22 05:16:54;;;;;;;14.50;6.00;;;;;;;;;;5104660;28;21274;-42
2021/03/22 05:19:19;;;;;;;11.17;5.53;;;;;;;;;;5106696;28;20193;-42
2021/03/22 05:21:44;;;;;;;13.17;5.77;;;;;;;;;;5103479;28;20875;-42
2021/03/22 05:24:09;;;;;;;18.17;7.20;;;;;;;;;;5105749;28;20206;-42
2021/03/22 05:26:34;;;;;;;13.77;5.17;;;;;;;;;;5102355;28;20195;-50
2021/03/22 05:28:59;;;;;;;18.33;5.60;;;;;;;;;;5104562;28;20192;-42
2021/03/22 05:31:25;;;;;;;17.20;7.00;;;;;;;;;;5105730;28;20214;-42
2021/03/22 05:33:50;;;;;;;19.00;6.77;;;;;;;;;;5105765;28;20593;-42
2021/03/22 05:36:15;;;;;;;13.80;5.70;;;;;;;;;;5106507;28;20287;-42
2021/03/22 05:38:40;;;;;;;18.90;6.00;;;;;;;;;;5103234;28;20268;-42
2021/03/22 05:41:14;;;;;;;12.97;6.93;;;;;;;;;;5096542;28;20194;-42
2021/03/22 05:43:42;;;;;;;18.60;7.20;;;;;;;;;;5101597;28;20198;-42
2021/03/22 05:46:13;;;;;;;12.43;7.00;;;;;;;;;;5104124;28;20611;-43
2021/03/22 05:48:45;;;;;;;13.57;6.80;;;;;;;;;;5103268;28;21165;-43
2021/03/22 05:51:12;;;;;;;21.10;7.90;;;;;;;;;;5103552;28;20612;-42
2021/03/22 05:53:56;;;;;;;19.17;7.63;;;;;;;;;;5104343;28;20702;-43
2021/03/22 05:56:42;;;;;;;22.60;6.60;;;;;;;;;;5098653;28;21277;-42
2021/03/22 05:59:19;;;;;;;13.23;6.83;;;;;;;;;;5081175;28;21028;-43
2021/03/22 06:01:46;;;;;;;10.73;5.70;;;;;;;;;;5107530;28;20703;-42
2021/03/22 06:04:36;;;;;;;17.97;7.77;;;;;;;;;;5107232;28;20629;-42
2021/03/22 06:07:03;;;;;;;15.40;7.07;;;;;;;;;;5107455;28;20618;-42
2021/03/22 06:09:32;;;;;;;17.97;6.67;;;;;;;;;;5107592;28;20812;-42
2021/03/22 06:12:16;;;;;;;16.00;7.30;;;;;;;;;;5106843;28;20610;-42
2021/03/22 06:14:43;;;;;;;20.27;7.70;;;;;;;;;;5095762;28;20584;-42
2021/03/22 06:17:19;;;;;;;15.43;6.53;;;;;;;;;;5107060;28;20623;-42
2021/03/22 06:19:48;;;;;;;18.63;7.00;;;;;;;;;;5106008;28;20594;-42
2021/03/22 06:22:18;;;;;;;16.97;6.60;;;;;;;;;;5109414;28;20698;-42
2021/03/22 06:24:43;;;;;;;16.40;7.00;;;;;;;;;;5107352;28;20595;-41
2021/03/22 06:27:09;;;;;;;22.67;8.03;;;;;;;;;;5109721;27;20634;-42
2021/03/22 06:29:38;;;;;;;18.50;7.60;;;;;;;;;;5103042;28;20747;-43
2021/03/22 06:32:07;;;;;;;23.40;8.43;;;;;;;;;;5110152;28;20179;-41
2021/03/22 06:34:58;;;;;;;15.20;6.93;;;;;;;;;;5102033;28;20603;-41
2021/03/22 06:37:28;;;;;;;16.90;7.03;;;;;;;;;;5103764;28;20721;-42
2021/03/22 06:40:11;;;;;;;20.03;8.07;;;;;;;;;;5109884;28;20619;-42
2021/03/22 06:42:37;;;;;;;15.57;7.50;;;;;;;;;;5102862;28;20634;-42
2021/03/22 06:45:04;;;;;;;23.57;8.97;;;;;;;;;;5109668;28;20627;-42
2021/03/22 06:47:31;;;;;;;15.87;8.43;;;;;;;;;;5103141;28;21470;-43
2021/03/22 06:50:35;;;;;;;12.10;7.17;;;;;;;;;;5108898;28;20707;-43
2021/03/22 06:53:00;;;;;;;14.67;7.60;;;;;;;;;;5021454;28;20598;-42
2021/03/22 06:55:33;;;;;;;20.93;7.73;;;;;;;;;;5019440;28;20654;-42
2021/03/22 06:57:58;;;;;;;14.93;7.87;;;;;;;;;;5068856;28;20170;-42
2021/03/22 07:00:27;;;;;;;14.37;6.83;;;;;;;;;;5083944;28;21006;-43
2021/03/22 07:02:57;;;;;;;15.53;7.60;;;;;;;;;;5109035;28;20644;-43
2021/03/22 07:05:28;;;;;;;26.40;8.10;;;;;;;;;;5102869;27;20666;-42
2021/03/22 07:07:54;;;;;;;20.87;8.40;;;;;;;;;;5106931;28;21601;-42
2021/03/22 07:10:21;;;;;;;18.60;7.70;;;;;;;;;;5108971;28;20649;-41
2021/03/22 07:12:46;;;;;;;20.97;7.80;;;;;;;;;;5108016;28;20649;-42
2021/03/22 07:15:14;;;;;;;20.00;7.47;;;;;;;;;;5109454;28;20937;-43
2021/03/22 07:17:39;;;;;;;23.83;7.97;;;;;;;;;;5108158;28;20167;-43
2021/03/22 07:20:07;;;;;;;16.70;8.10;;;;;;;;;;5108486;28;20935;-42
2021/03/22 07:22:33;;;;;;;20.73;8.13;;;;;;;;;;5108177;28;20178;-43
2021/03/22 07:25:07;;;;;;;19.47;9.17;;;;;;;;;;5108262;28;20630;-42
2021/03/22 07:27:40;;;;;;;20.20;8.60;;;;;;;;;;5109494;28;20531;-42
2021/03/22 07:30:15;;;;;;;21.20;9.10;;;;;;;;;;5090460;28;21044;-42
2021/03/22 07:32:45;;;;;;;23.27;9.20;;;;;;;;;;5103674;28;21227;-42
2021/03/22 07:35:23;;;;;;;19.40;8.90;;;;;;;;;;5107030;28;20612;-43
2021/03/22 07:37:54;;;;;;;20.20;8.77;;;;;;;;;;5105647;28;20592;-42
2021/03/22 07:40:30;;;;;;;15.53;7.53;;;;;;;;;;5100983;28;21067;-42
2021/03/22 07:43:01;;;;;;;20.27;8.80;;;;;;;;;;5107686;28;20615;-41
2021/03/22 07:45:32;;;;;;;17.53;8.63;;;;;;;;;;5102427;28;20603;-42
2021/03/22 07:48:10;;;;;;;16.60;8.80;;;;;;;;;;5106895;28;20665;-42
2021/03/22 07:50:38;;;;;;;17.83;8.97;;;;;;;;;;5108160;28;20631;-42
2021/03/22 07:53:10;;;;;;;19.27;7.90;;;;;;;;;;5099395;28;20647;-42
2021/03/22 07:55:36;;;;;;;15.43;8.77;;;;;;;;;;5108184;28;20681;-42
2021/03/22 07:58:04;;;;;;;19.33;9.43;;;;;;;;;;5104256;28;20628;-42
2021/03/22 08:00:48;;;;;;;16.00;8.63;;;;;;;;;;5109001;27;20195;-42
2021/03/22 08:03:16;;;;;;;20.60;9.00;;;;;;;;;;5107073;27;20683;-43
2021/03/22 08:06:19;;;;;;;14.70;8.90;;;;;;;;;;5102834;28;20584;-41
2021/03/22 08:08:56;;;;;;;17.30;8.20;;;;;;;;;;5017984;28;20618;-43
2021/03/22 08:11:26;;;;;;;20.03;8.43;;;;;;;;;;5025586;28;20708;-45
2021/03/22 08:13:54;;;;;;;17.30;7.87;;;;;;;;;;5069747;28;20610;-42
2021/03/22 08:16:25;;;;;;;20.03;8.40;;;;;;;;;;5108422;28;21132;-44
2021/03/22 08:18:52;;;;;;;22.37;8.40;;;;;;;;;;5108071;28;20607;-42
2021/03/22 08:21:34;;;;;;;16.07;7.07;;;;;;;;;;5109067;28;20580;-42
2021/03/22 08:24:06;;;;;;;15.33;8.30;;;;;;;;;;5108140;28;20618;-43
2021/03/22 08:26:37;;;;;;;16.87;7.70;;;;;;;;;;5108510;28;20585;-42
2021/03/22 08:29:07;;;;;;;18.23;8.47;;;;;;;;;;5108439;28;20597;-43
2021/03/22 08:31:45;;;;;;;16.77;8.80;;;;;;;;;;5108547;28;20614;-44
2021/03/22 08:34:29;;;;;;;19.87;8.27;;;;;;;;;;5108578;28;20576;-42
2021/03/22 08:37:02;;;;;;;20.77;8.90;;;;;;;;;;5108077;28;20689;-42
2021/03/22 08:39:31;;;;;;;16.70;7.73;;;;;;;;;;5107750;28;20599;-42
2021/03/22 08:42:04;;;;;;;15.67;8.47;;;;;;;;;;5108079;28;20602;-43
2021/03/22 08:44:33;;;;;;;16.33;8.30;;;;;;;;;;5108569;28;20592;-43
2021/03/22 08:47:03;;;;;;;17.90;7.97;;;;;;;;;;5108467;28;20705;-42
2021/03/22 08:49:28;;;;;;;17.90;8.27;;;;;;;;;;5107573;28;20647;-42
2021/03/22 08:51:54;;;;;;;17.05;8.25;;;;;;;;;;5108172;28;20557;-42
2021/03/22 08:54:27;;;;;;;15.07;8.57;;;;;;;;;;5108225;28;20812;-43
2021/03/22 08:56:59;;;;;;;15.27;7.67;;;;;;;;;;5107751;28;20255;-43
2021/03/22 08:59:25;;;;;;;17.30;9.03;;;;;;;;;;5108222;28;20594;-42
2021/03/22 09:01:50;;;;;;;19.50;8.00;;;;;;;;;;5108681;28;20604;-42
2021/03/22 09:04:21;;;;;;;13.07;7.77;;;;;;;;;;5108555;28;20221;-43
2021/03/22 09:07:05;;;;;;;16.60;7.97;;;;;;;;;;5108345;28;20179;-42
2021/03/22 09:09:31;;;;;;;14.70;7.43;;;;;;;;;;5108274;28;20641;-42
2021/03/22 09:11:59;;;;;;;15.23;7.77;;;;;;;;;;5108562;28;20588;-42
2021/03/22 09:14:27;;;;;;;14.60;8.00;;;;;;;;;;5108708;28;20941;-42
2021/03/22 09:16:53;;;;;;;18.80;7.40;;;;;;;;;;5108332;28;20754;-43
2021/03/22 09:19:21;;;;;;;14.43;7.23;;;;;;;;;;5108029;28;20653;-42
2021/03/22 09:22:06;;;;;;;12.80;7.97;;;;;;;;;;5108442;28;20582;-42
2021/03/22 09:24:44;;;;;;;12.07;6.57;;;;;;;;;;5107621;28;21166;-42
2021/03/22 09:27:15;;;;;;;14.30;8.60;;;;;;;;;;5089924;28;20578;-43
2021/03/22 09:30:13;;;;;;;15.30;8.00;;;;;;;;;;5107987;28;20757;-42
2021/03/22 09:32:38;;;;;;;15.53;8.00;;;;;;;;;;5108217;28;20581;-43
2021/03/22 09:35:15;;;;;;;13.40;7.35;;;;;;;;;;5110272;28;20577;-42
2021/03/22 09:37:43;;;;;;;18.27;7.10;;;;;;;;;;5111897;28;20174;-42
2021/03/22 09:40:34;;;;;;;12.77;6.87;;;;;;;;;;5112124;28;20948;-42
2021/03/22 09:43:02;;;;;;;15.20;7.33;;;;;;;;;;5111917;28;20701;-42
2021/03/22 09:45:27;;;;;;;17.37;9.23;;;;;;;;;;5112420;28;20630;-41
2021/03/22 09:48:03;;;;;;;16.23;8.13;;;;;;;;;;5111194;28;20582;-43
2021/03/22 09:50:30;;;;;;;15.73;7.00;;;;;;;;;;5111664;28;20207;-43
2021/03/22 09:52:55;;;;;;;14.30;7.20;;;;;;;;;;5111823;28;20588;-42
2021/03/22 09:55:40;;;;;;;18.20;7.40;;;;;;;;;;5111333;27;20645;-42
2021/03/22 09:58:17;;;;;;;17.63;7.80;;;;;;;;;;5110996;28;20238;-41
2021/03/22 10:00:45;;;;;;;11.23;6.53;;;;;;;;;;5111735;28;20577;-41
2021/03/22 10:03:26;;;;;;;13.83;7.27;;;;;;;;;;5112171;28;20647;-41
2021/03/22 10:05:52;;;;;;;12.80;7.70;;;;;;;;;;5110937;28;20635;-42
2021/03/22 10:08:25;;;;;;;11.43;6.23;;;;;;;;;;5111165;28;20630;-42
2021/03/22 10:10:52;;;;;;;12.03;7.07;;;;;;;;;;5108906;28;20263;-42
2021/03/22 10:13:20;;;;;;;12.03;6.90;;;;;;;;;;5109275;28;20566;-42
2021/03/22 10:16:03;;;;;;;12.70;7.73;;;;;;;;;;5111408;28;20559;-42
2021/03/22 10:18:33;;;;;;;13.70;7.33;;;;;;;;;;5110572;28;20606;-43
2021/03/22 10:21:08;;;;;;;21.20;8.17;;;;;;;;;;5110755;28;21196;-43
2021/03/22 10:23:37;;;;;;;11.90;6.87;;;;;;;;;;5110507;28;20613;-43
2021/03/22 10:26:02;;;;;;;13.83;6.80;;;;;;;;;;5110824;28;20661;-42
2021/03/22 10:28:27;;;;;;;14.00;6.93;;;;;;;;;;5110675;28;20666;-42
2021/03/22 10:30:53;;;;;;;12.67;6.90;;;;;;;;;;5110137;28;20203;-42
2021/03/22 10:33:18;;;;;;;14.75;7.78;;;;;;;;;;5111201;28;20598;-42
2021/03/22 10:35:47;;;;;;;13.67;7.10;;;;;;;;;;5110903;28;20638;-50
2021/03/22 10:38:17;;;;;;;12.37;7.63;;;;;;;;;;5109915;28;20193;-43
2021/03/22 10:40:42;;;;;;;10.90;7.50;;;;;;;;;;5110749;28;21358;-41
2021/03/22 10:43:22;;;;;;;9.73;6.10;;;;;;;;;;5111117;28;20572;-42
2021/03/22 10:45:47;;;;;;;10.80;6.77;;;;;;;;;;5110798;28;20165;-43
2021/03/22 10:48:18;;;;;;;8.97;6.10;;;;;;;;;;5109878;28;20610;-42
2021/03/22 10:50:44;;;;;;;10.73;5.80;;;;;;;;;;5110451;28;20400;-42
2021/03/22 10:53:16;;;;;;;12.20;5.90;;;;;;;;;;5110366;28;20600;-42
2021/03/22 10:55:43;;;;;;;12.30;5.67;;;;;;;;;;5110711;28;20702;-43
2021/03/22 10:58:29;;;;;;;9.10;5.53;;;;;;;;;;5110523;28;20584;-41
2021/03/22 11:00:59;;;;;;;10.80;5.20;;;;;;;;;;5109579;28;20617;-42
2021/03/22 11:03:25;;;;;;;13.37;6.00;;;;;;;;;;5110634;28;20583;-43
2021/03/22 11:05:51;;;;;;;13.53;5.03;;;;;;;;;;5110719;28;21125;-42
2021/03/22 11:08:23;;;;;;;8.90;4.93;;;;;;;;;;5109954;28;20606;-42
2021/03/22 11:10:48;;;;;;;12.50;5.20;;;;;;;;;;5110238;28;20206;-42
2021/03/22 11:13:17;;;;;;;11.93;5.13;;;;;;;;;;5110349;28;20576;-42
2021/03/22 11:15:47;;;;;;;7.07;4.43;;;;;;;;;;5110237;28;20170;-42
2021/03/22 11:18:14;;;;;;;15.53;5.27;;;;;;;;;;5109834;28;20601;-42
2021/03/22 11:20:47;;;;;;;9.60;5.17;;;;;;;;;;5110011;28;20604;-41
2021/03/22 11:23:27;;;;;;;8.90;4.90;;;;;;;;;;5091738;28;20602;-42
2021/03/22 11:25:53;;;;;;;10.27;5.07;;;;;;;;;;5109921;28;20952;-42
2021/03/22 11:28:18;;;;;;;10.20;4.80;;;;;;;;;;5107628;28;20671;-43
2021/03/22 11:30:53;;;;;;;7.60;4.70;;;;;;;;;;5107350;28;20645;-42
2021/03/22 11:33:23;;;;;;;9.20;5.17;;;;;;;;;;5110144;28;20172;-41
2021/03/22 11:36:08;;;;;;;6.93;4.70;;;;;;;;;;5109854;28;20581;-42
2021/03/22 11:38:36;;;;;;;10.30;5.10;;;;;;;;;;5108767;28;20607;-42
2021/03/22 11:41:01;;;;;;;10.13;4.43;;;;;;;;;;5109348;28;20619;-43
2021/03/22 11:43:28;;;;;;;10.67;5.23;;;;;;;;;;5109437;28;21203;-43
2021/03/22 11:45:54;;;;;;;8.07;4.87;;;;;;;;;;5109665;28;20185;-42
2021/03/22 11:48:19;;;;;;;10.03;4.67;;;;;;;;;;5109807;28;20592;-42
2021/03/22 11:50:45;;;;;;;10.40;4.40;;;;;;;;;;5109619;28;20202;-42
2021/03/22 11:53:14;;;;;;;10.50;5.23;;;;;;;;;;5109048;28;20521;-42
2021/03/22 11:55:42;;;;;;;8.70;4.53;;;;;;;;;;5109487;28;20647;-42
2021/03/22 11:58:25;;;;;;;11.30;4.50;;;;;;;;;;5108626;28;20620;-43
2021/03/22 12:00:51;;;;;;;10.20;4.30;;;;;;;;;;5109353;28;20674;-43
2021/03/22 12:03:25;;;;;;;6.97;4.40;;;;;;;;;;5109053;28;20699;-42
2021/03/22 12:06:02;;;;;;;10.83;4.97;;;;;;;;;;5109489;28;20191;-43
2021/03/22 12:08:36;;;;;;;8.53;5.07;;;;;;;;;;5108868;28;20607;-43
2021/03/22 12:11:03;;;;;;;8.17;4.20;;;;;;;;;;5108961;28;21017;-42
2021/03/22 12:13:29;;;;;;;8.47;4.60;;;;;;;;;;5108942;28;21186;-40
2021/03/22 12:15:54;;;;;;;5.27;4.10;;;;;;;;;;5109012;28;20664;-41
2021/03/22 12:18:30;;;;;;;9.30;4.67;;;;;;;;;;5108746;28;20178;-42
2021/03/22 12:20:55;;;;;;;7.80;4.60;;;;;;;;;;5108820;28;20211;-41
2021/03/22 12:23:21;;;;;;;10.70;3.63;;;;;;;;;;5108831;28;20624;-42
2021/03/22 12:25:46;;;;;;;5.07;3.30;;;;;;;;;;5109123;28;20180;-42
2021/03/22 12:28:11;;;;;;;8.90;4.23;;;;;;;;;;5108715;28;20319;-43
2021/03/22 12:30:37;;;;;;;8.40;4.40;;;;;;;;;;5108773;28;20211;-42
2021/03/22 12:33:03;;;;;;;5.43;3.93;;;;;;;;;;5108325;28;20535;-42
2021/03/22 12:35:37;;;;;;;8.53;3.70;;;;;;;;;;5108438;28;20175;-41
2021/03/22 12:38:03;;;;;;;9.57;4.03;;;;;;;;;;5108336;28;20585;-42
2021/03/22 12:40:28;;;;;;;6.87;3.43;;;;;;;;;;5109036;28;20766;-42
2021/03/22 12:42:54;;;;;;;6.20;3.57;;;;;;;;;;5108803;28;20655;-43
2021/03/22 12:45:37;;;;;;;5.03;3.97;;;;;;;;;;5108197;28;20174;-42
2021/03/22 12:48:04;;;;;;;8.80;4.40;;;;;;;;;;5108685;28;20708;-43
2021/03/22 12:50:31;;;;;;;7.17;4.47;;;;;;;;;;5108435;28;20633;-43
2021/03/22 12:52:56;;;;;;;8.27;3.83;;;;;;;;;;5108416;28;20943;-43
2021/03/22 12:55:22;;;;;;;9.03;4.93;;;;;;;;;;5108700;28;20626;-42
2021/03/22 12:57:48;;;;;;;6.20;3.93;;;;;;;;;;5108168;28;20586;-42
2021/03/22 13:00:14;;;;;;;12.20;4.33;;;;;;;;;;5108317;28;20175;-42
2021/03/22 13:02:40;;;;;;;7.93;4.37;;;;;;;;;;5108999;28;20598;-43
2021/03/22 13:05:15;;;;;;;8.17;4.57;;;;;;;;;;5108642;28;20255;-43
2021/03/22 13:07:40;;;;;;;7.40;4.03;;;;;;;;;;5108116;28;20596;-42
2021/03/22 13:10:06;;;;;;;6.63;3.53;;;;;;;;;;5109268;28;20632;-43
2021/03/22 13:12:33;;;;;;;8.60;3.70;;;;;;;;;;5110411;28;20263;-43
2021/03/22 13:14:58;;;;;;;7.77;2.70;;;;;;;;;;5112370;28;20293;-44
2021/03/22 13:17:32;;;;;;;6.60;3.20;;;;;;;;;;5112442;28;21127;-42
2021/03/22 13:19:58;;;;;;;6.43;3.43;;;;;;;;;;5111950;28;20183;-43
2021/03/22 13:22:24;;;;;;;4.87;3.40;;;;;;;;;;5112246;28;20634;-41
2021/03/22 13:24:52;;;;;;;8.50;3.30;;;;;;;;;;5111723;28;20179;-43
2021/03/22 13:27:17;;;;;;;6.03;2.53;;;;;;;;;;5112281;28;20581;-42
2021/03/22 13:29:43;;;;;;;10.20;3.53;;;;;;;;;;5112240;28;21182;-41
2021/03/22 13:32:08;;;;;;;4.67;2.50;;;;;;;;;;5111698;28;20711;-42
2021/03/22 13:34:33;;;;;;;4.67;2.60;;;;;;;;;;5112045;28;20265;-42
2021/03/22 13:36:59;;;;;;;5.00;2.80;;;;;;;;;;5111863;28;20163;-42
2021/03/22 13:39:24;;;;;;;3.00;2.27;;;;;;;;;;5111409;28;20592;-42
2021/03/22 13:41:49;;;;;;;4.37;2.80;;;;;;;;;;5106400;27;20204;-42
2021/03/22 13:44:15;;;;;;;7.30;2.20;;;;;;;;;;5109356;28;20199;-42
2021/03/22 13:46:41;;;;;;;6.50;3.00;;;;;;;;;;5111198;28;20638;-43
2021/03/22 13:49:06;;;;;;;3.97;2.30;;;;;;;;;;5111299;28;20181;-42
2021/03/22 13:51:33;;;;;;;3.50;2.80;;;;;;;;;;5111451;28;20617;-43
2021/03/22 13:53:58;;;;;;;4.10;2.67;;;;;;;;;;5111292;28;20551;-43
2021/03/22 13:56:24;;;;;;;3.57;2.00;;;;;;;;;;5111263;28;20647;-43
2021/03/22 13:58:49;;;;;;;3.83;2.60;;;;;;;;;;5111489;28;20173;-42
2021/03/22 14:01:14;;;;;;;4.18;2.60;;;;;;;;;;5110905;28;20175;-42
2021/03/22 14:03:39;;;;;;;2.97;2.13;;;;;;;;;;5111353;28;20871;-44
2021/03/22 14:06:05;;;;;;;3.77;2.40;;;;;;;;;;5111087;28;20664;-42
2021/03/22 14:08:30;;;;;;;4.63;2.43;;;;;;;;;;5110960;28;20175;-42
2021/03/22 14:10:55;;;;;;;4.13;2.50;;;;;;;;;;5110549;28;20206;-42
2021/03/22 14:13:21;;;;;;;7.20;2.73;;;;;;;;;;5111103;28;20636;-43
2021/03/22 14:15:46;;;;;;;5.03;2.33;;;;;;;;;;5111126;28;20827;-43
2021/03/22 14:18:13;;;;;;;2.47;2.27;;;;;;;;;;5110094;28;20226;-43
2021/03/22 14:20:39;;;;;;;2.83;2.00;;;;;;;;;;5110360;28;20188;-43
2021/03/22 14:23:05;;;;;;;5.33;2.37;;;;;;;;;;5110675;28;20601;-43
2021/03/22 14:25:30;;;;;;;3.30;2.30;;;;;;;;;;5110801;28;20227;-43
2021/03/22 14:27:56;;;;;;;3.23;2.00;;;;;;;;;;5110916;28;21341;-43
2021/03/22 14:30:23;;;;;;;4.80;2.90;;;;;;;;;;5110841;28;20904;-43
2021/03/22 14:32:49;;;;;;;5.27;3.63;;;;;;;;;;5110433;28;20250;-43
2021/03/22 14:35:15;;;;;;;9.77;5.20;;;;;;;;;;5110817;28;21337;-43
2021/03/22 14:37:40;;;;;;;5.93;3.67;;;;;;;;;;5110204;28;20202;-41
2021/03/22 14:40:06;;;;;;;14.10;8.60;;;;;;;;;;5110202;28;20685;-41
2021/03/22 14:42:31;;;;;;;16.60;9.00;;;;;;;;;;5111474;28;20303;-43